Terminal Aerodrome Forecast
Issued by NWS Spokane, WA

Home | Current Version | Previous Version | Text Only | Print | Product List | Glossary On
Versions: 1 2 3 4 5 6 7 8 9 10 11 12 13 14 15 16 17 18 19 20 21 22 23 24 25 26 27 28 29 30 31 32 33 34 35 36 37 38 39 40 41 42 43 44 45 46 47 48 49 50
879
FTUS46 KOTX 240923 AAB
TAFEAT
TAF AMD
KEAT 240923Z 2409/2506 00000KT 2SM -SN BR SCT007 OVC015
      TEMPO 2410/2414 3/4SM BR OVC005
     FM241700 VRB02KT 1 1/2SM -RA BR BKN008 OVC020
     FM250100 27004KT 3SM BR BKN015 OVC025=

USA.gov is the U.S. government's official web portal to all federal, state and local government web resources and services.